sensor_id;sensor_type;location;lat;lon;timestamp;P1;durP1;ratioP1;P2;durP2;ratioP2
59468;SDS011;45277;52.768;18.262;2023-06-19T00:00:28;18.05;;;13.45;;
59468;SDS011;45277;52.768;18.262;2023-06-19T00:02:21;20.02;;;14.07;;
59468;SDS011;45277;52.768;18.262;2023-06-19T00:03:53;18.38;;;13.40;;
59468;SDS011;45277;52.768;18.262;2023-06-19T00:05:24;16.73;;;13.45;;
59468;SDS011;45277;52.768;18.262;2023-06-19T00:06:56;18.27;;;14.10;;
59468;SDS011;45277;52.768;18.262;2023-06-19T00:08:27;18.67;;;13.70;;
59468;SDS011;45277;52.768;18.262;2023-06-19T00:09:58;20.02;;;14.35;;
59468;SDS011;45277;52.768;18.262;2023-06-19T00:11:30;18.70;;;14.05;;
59468;SDS011;45277;52.768;18.262;2023-06-19T00:13:01;18.38;;;13.77;;
59468;SDS011;45277;52.768;18.262;2023-06-19T00:14:33;18.10;;;13.80;;
59468;SDS011;45277;52.768;18.262;2023-06-19T00:16:06;17.85;;;13.93;;
59468;SDS011;45277;52.768;18.262;2023-06-19T00:17:38;20.20;;;14.63;;
59468;SDS011;45277;52.768;18.262;2023-06-19T00:19:09;21.08;;;14.38;;
59468;SDS011;45277;52.768;18.262;2023-06-19T00:20:42;18.25;;;14.43;;
59468;SDS011;45277;52.768;18.262;2023-06-19T00:22:16;22.70;;;15.63;;
59468;SDS011;45277;52.768;18.262;2023-06-19T00:23:47;20.70;;;14.55;;
59468;SDS011;45277;52.768;18.262;2023-06-19T00:25:19;21.02;;;13.65;;
59468;SDS011;45277;52.768;18.262;2023-06-19T00:26:50;18.65;;;13.82;;
59468;SDS011;45277;52.768;18.262;2023-06-19T00:28:21;19.02;;;14.57;;
59468;SDS011;45277;52.768;18.262;2023-06-19T00:29:53;20.75;;;14.43;;
59468;SDS011;45277;52.768;18.262;2023-06-19T00:31:24;18.70;;;14.77;;
59468;SDS011;45277;52.768;18.262;2023-06-19T00:33:01;24.67;;;14.38;;
59468;SDS011;45277;52.768;18.262;2023-06-19T00:34:34;22.30;;;14.10;;
59468;SDS011;45277;52.768;18.262;2023-06-19T00:36:11;18.45;;;13.63;;
59468;SDS011;45277;52.768;18.262;2023-06-19T00:37:43;19.92;;;13.82;;
59468;SDS011;45277;52.768;18.262;2023-06-19T00:39:15;16.65;;;13.25;;
59468;SDS011;45277;52.768;18.262;2023-06-19T00:40:46;18.52;;;12.85;;
59468;SDS011;45277;52.768;18.262;2023-06-19T00:42:18;17.23;;;12.73;;
59468;SDS011;45277;52.768;18.262;2023-06-19T00:43:49;19.05;;;13.02;;
59468;SDS011;45277;52.768;18.262;2023-06-19T00:45:22;15.88;;;11.95;;
59468;SDS011;45277;52.768;18.262;2023-06-19T00:47:00;16.90;;;12.38;;
59468;SDS011;45277;52.768;18.262;2023-06-19T00:48:34;15.30;;;12.50;;
59468;SDS011;45277;52.768;18.262;2023-06-19T00:50:06;19.50;;;13.57;;
59468;SDS011;45277;52.768;18.262;2023-06-19T00:51:38;18.40;;;13.90;;
59468;SDS011;45277;52.768;18.262;2023-06-19T00:53:09;19.83;;;13.40;;
59468;SDS011;45277;52.768;18.262;2023-06-19T00:54:41;19.02;;;14.05;;
59468;SDS011;45277;52.768;18.262;2023-06-19T00:56:12;18.52;;;12.50;;
59468;SDS011;45277;52.768;18.262;2023-06-19T00:57:46;18.00;;;13.90;;
59468;SDS011;45277;52.768;18.262;2023-06-19T00:59:19;18.50;;;14.35;;
59468;SDS011;45277;52.768;18.262;2023-06-19T01:00:50;19.80;;;14.57;;
59468;SDS011;45277;52.768;18.262;2023-06-19T01:02:22;20.23;;;13.73;;
59468;SDS011;45277;52.768;18.262;2023-06-19T01:03:54;21.05;;;13.45;;
59468;SDS011;45277;52.768;18.262;2023-06-19T01:05:25;20.45;;;14.32;;
59468;SDS011;45277;52.768;18.262;2023-06-19T01:07:02;18.90;;;13.68;;
59468;SDS011;45277;52.768;18.262;2023-06-19T01:10:20;17.73;;;13.95;;
59468;SDS011;45277;52.768;18.262;2023-06-19T01:11:57;17.02;;;12.55;;
59468;SDS011;45277;52.768;18.262;2023-06-19T01:13:39;18.42;;;13.38;;
59468;SDS011;45277;52.768;18.262;2023-06-19T01:15:20;17.67;;;12.93;;
59468;SDS011;45277;52.768;18.262;2023-06-19T01:16:54;17.52;;;13.27;;
59468;SDS011;45277;52.768;18.262;2023-06-19T01:18:26;19.75;;;13.60;;
59468;SDS011;45277;52.768;18.262;2023-06-19T01:19:58;19.80;;;13.88;;
59468;SDS011;45277;52.768;18.262;2023-06-19T01:21:30;20.27;;;13.50;;
59468;SDS011;45277;52.768;18.262;2023-06-19T01:23:06;18.77;;;13.20;;
59468;SDS011;45277;52.768;18.262;2023-06-19T01:24:41;19.10;;;12.80;;
59468;SDS011;45277;52.768;18.262;2023-06-19T01:26:12;19.25;;;11.88;;
59468;SDS011;45277;52.768;18.262;2023-06-19T01:27:44;19.23;;;13.48;;
59468;SDS011;45277;52.768;18.262;2023-06-19T01:29:17;19.90;;;13.45;;
59468;SDS011;45277;52.768;18.262;2023-06-19T01:30:49;18.80;;;13.25;;
59468;SDS011;45277;52.768;18.262;2023-06-19T01:32:26;18.00;;;13.15;;
59468;SDS011;45277;52.768;18.262;2023-06-19T01:34:01;18.80;;;13.15;;
59468;SDS011;45277;52.768;18.262;2023-06-19T01:35:37;19.65;;;13.43;;
59468;SDS011;45277;52.768;18.262;2023-06-19T01:37:12;19.58;;;12.75;;
59468;SDS011;45277;52.768;18.262;2023-06-19T01:38:45;17.38;;;13.13;;
59468;SDS011;45277;52.768;18.262;2023-06-19T01:40:19;17.60;;;12.43;;
59468;SDS011;45277;52.768;18.262;2023-06-19T01:41:55;18.83;;;12.73;;
59468;SDS011;45277;52.768;18.262;2023-06-19T01:43:27;15.35;;;11.98;;
59468;SDS011;45277;52.768;18.262;2023-06-19T01:45:01;16.50;;;13.02;;
59468;SDS011;45277;52.768;18.262;2023-06-19T01:46:33;20.30;;;12.85;;
59468;SDS011;45277;52.768;18.262;2023-06-19T01:48:05;19.10;;;12.25;;
59468;SDS011;45277;52.768;18.262;2023-06-19T01:49:37;18.92;;;12.90;;
59468;SDS011;45277;52.768;18.262;2023-06-19T01:51:09;17.42;;;12.85;;
59468;SDS011;45277;52.768;18.262;2023-06-19T01:52:41;19.10;;;13.55;;
59468;SDS011;45277;52.768;18.262;2023-06-19T01:54:13;19.67;;;13.70;;
59468;SDS011;45277;52.768;18.262;2023-06-19T01:55:44;17.13;;;13.43;;
59468;SDS011;45277;52.768;18.262;2023-06-19T01:57:16;21.98;;;14.07;;
59468;SDS011;45277;52.768;18.262;2023-06-19T01:58:48;16.05;;;11.98;;
59468;SDS011;45277;52.768;18.262;2023-06-19T02:00:20;15.85;;;12.23;;
59468;SDS011;45277;52.768;18.262;2023-06-19T02:01:51;17.85;;;12.63;;
59468;SDS011;45277;52.768;18.262;2023-06-19T02:03:23;18.48;;;12.52;;
59468;SDS011;45277;52.768;18.262;2023-06-19T02:04:54;19.42;;;13.10;;
59468;SDS011;45277;52.768;18.262;2023-06-19T02:06:25;17.42;;;13.68;;
59468;SDS011;45277;52.768;18.262;2023-06-19T02:07:57;21.52;;;13.50;;
59468;SDS011;45277;52.768;18.262;2023-06-19T02:09:28;19.98;;;13.68;;
59468;SDS011;45277;52.768;18.262;2023-06-19T02:11:00;18.48;;;13.50;;
59468;SDS011;45277;52.768;18.262;2023-06-19T02:12:31;18.45;;;13.75;;
59468;SDS011;45277;52.768;18.262;2023-06-19T02:14:02;18.77;;;13.63;;
59468;SDS011;45277;52.768;18.262;2023-06-19T02:15:34;19.20;;;12.57;;
59468;SDS011;45277;52.768;18.262;2023-06-19T02:17:05;16.17;;;12.50;;
59468;SDS011;45277;52.768;18.262;2023-06-19T02:18:37;17.67;;;13.05;;
59468;SDS011;45277;52.768;18.262;2023-06-19T02:20:08;16.77;;;12.48;;
59468;SDS011;45277;52.768;18.262;2023-06-19T02:21:42;16.77;;;12.10;;
59468;SDS011;45277;52.768;18.262;2023-06-19T02:23:13;17.58;;;12.57;;
59468;SDS011;45277;52.768;18.262;2023-06-19T02:24:44;16.13;;;12.88;;
59468;SDS011;45277;52.768;18.262;2023-06-19T02:26:16;17.50;;;12.55;;
59468;SDS011;45277;52.768;18.262;2023-06-19T02:27:47;19.23;;;12.32;;
59468;SDS011;45277;52.768;18.262;2023-06-19T02:29:19;19.73;;;12.93;;
59468;SDS011;45277;52.768;18.262;2023-06-19T02:30:52;20.50;;;12.80;;
59468;SDS011;45277;52.768;18.262;2023-06-19T02:32:24;15.75;;;12.43;;
59468;SDS011;45277;52.768;18.262;2023-06-19T02:33:56;26.90;;;14.68;;
59468;SDS011;45277;52.768;18.262;2023-06-19T02:35:27;18.33;;;13.30;;
59468;SDS011;45277;52.768;18.262;2023-06-19T02:36:59;17.80;;;13.45;;
59468;SDS011;45277;52.768;18.262;2023-06-19T02:38:30;18.17;;;14.13;;
59468;SDS011;45277;52.768;18.262;2023-06-19T02:40:04;17.33;;;13.55;;
59468;SDS011;45277;52.768;18.262;2023-06-19T02:41:37;20.42;;;14.98;;
59468;SDS011;45277;52.768;18.262;2023-06-19T02:43:08;18.45;;;14.00;;
59468;SDS011;45277;52.768;18.262;2023-06-19T02:44:40;20.20;;;14.60;;
59468;SDS011;45277;52.768;18.262;2023-06-19T02:46:12;21.98;;;13.75;;
59468;SDS011;45277;52.768;18.262;2023-06-19T02:47:44;19.50;;;13.38;;
59468;SDS011;45277;52.768;18.262;2023-06-19T02:49:15;21.92;;;14.48;;
59468;SDS011;45277;52.768;18.262;2023-06-19T02:50:47;21.73;;;14.15;;
59468;SDS011;45277;52.768;18.262;2023-06-19T02:52:18;18.60;;;13.55;;
59468;SDS011;45277;52.768;18.262;2023-06-19T02:53:49;20.60;;;14.45;;
59468;SDS011;45277;52.768;18.262;2023-06-19T02:55:21;18.20;;;13.82;;
59468;SDS011;45277;52.768;18.262;2023-06-19T02:56:52;19.00;;;13.68;;
59468;SDS011;45277;52.768;18.262;2023-06-19T02:58:24;19.05;;;13.88;;
59468;SDS011;45277;52.768;18.262;2023-06-19T02:59:57;18.20;;;13.68;;
59468;SDS011;45277;52.768;18.262;2023-06-19T03:01:28;18.17;;;14.50;;
59468;SDS011;45277;52.768;18.262;2023-06-19T03:03:00;24.67;;;13.82;;
59468;SDS011;45277;52.768;18.262;2023-06-19T03:04:31;18.83;;;12.82;;
59468;SDS011;45277;52.768;18.262;2023-06-19T03:06:06;17.80;;;13.85;;
59468;SDS011;45277;52.768;18.262;2023-06-19T03:07:38;18.10;;;14.45;;
59468;SDS011;45277;52.768;18.262;2023-06-19T03:09:10;18.25;;;13.88;;
59468;SDS011;45277;52.768;18.262;2023-06-19T03:10:44;19.40;;;14.27;;
59468;SDS011;45277;52.768;18.262;2023-06-19T03:12:16;19.98;;;14.50;;
59468;SDS011;45277;52.768;18.262;2023-06-19T03:13:48;22.48;;;14.15;;
59468;SDS011;45277;52.768;18.262;2023-06-19T03:15:22;21.85;;;16.00;;
59468;SDS011;45277;52.768;18.262;2023-06-19T03:16:54;20.10;;;15.32;;
59468;SDS011;45277;52.768;18.262;2023-06-19T03:18:25;22.58;;;16.30;;
59468;SDS011;45277;52.768;18.262;2023-06-19T03:19:56;22.88;;;16.20;;
59468;SDS011;45277;52.768;18.262;2023-06-19T03:21:28;25.10;;;16.45;;
59468;SDS011;45277;52.768;18.262;2023-06-19T03:22:59;25.05;;;17.38;;
59468;SDS011;45277;52.768;18.262;2023-06-19T03:24:31;26.67;;;18.50;;
59468;SDS011;45277;52.768;18.262;2023-06-19T03:26:02;23.55;;;16.73;;
59468;SDS011;45277;52.768;18.262;2023-06-19T03:27:34;24.88;;;17.75;;
59468;SDS011;45277;52.768;18.262;2023-06-19T03:29:05;25.08;;;17.63;;
59468;SDS011;45277;52.768;18.262;2023-06-19T03:30:37;25.90;;;18.08;;
59468;SDS011;45277;52.768;18.262;2023-06-19T03:32:08;24.05;;;17.50;;
59468;SDS011;45277;52.768;18.262;2023-06-19T03:33:40;24.58;;;18.30;;
59468;SDS011;45277;52.768;18.262;2023-06-19T03:35:11;26.27;;;17.08;;
59468;SDS011;45277;52.768;18.262;2023-06-19T03:36:43;25.23;;;16.50;;
59468;SDS011;45277;52.768;18.262;2023-06-19T03:38:14;24.60;;;17.25;;
59468;SDS011;45277;52.768;18.262;2023-06-19T03:39:46;24.23;;;16.90;;
59468;SDS011;45277;52.768;18.262;2023-06-19T03:41:17;24.58;;;17.00;;
59468;SDS011;45277;52.768;18.262;2023-06-19T03:42:48;26.67;;;17.83;;
59468;SDS011;45277;52.768;18.262;2023-06-19T03:44:20;23.48;;;17.17;;
59468;SDS011;45277;52.768;18.262;2023-06-19T03:45:51;28.00;;;18.75;;
59468;SDS011;45277;52.768;18.262;2023-06-19T03:47:22;25.25;;;18.13;;
59468;SDS011;45277;52.768;18.262;2023-06-19T03:48:54;34.47;;;18.75;;
59468;SDS011;45277;52.768;18.262;2023-06-19T03:50:26;32.90;;;18.63;;
59468;SDS011;45277;52.768;18.262;2023-06-19T03:51:58;30.95;;;19.13;;
59468;SDS011;45277;52.768;18.262;2023-06-19T03:53:29;30.67;;;18.40;;
59468;SDS011;45277;52.768;18.262;2023-06-19T03:55:01;29.98;;;18.40;;
59468;SDS011;45277;52.768;18.262;2023-06-19T03:56:32;31.73;;;19.33;;
59468;SDS011;45277;52.768;18.262;2023-06-19T03:58:04;29.20;;;18.25;;
59468;SDS011;45277;52.768;18.262;2023-06-19T03:59:36;27.55;;;17.77;;
59468;SDS011;45277;52.768;18.262;2023-06-19T04:01:07;25.13;;;18.83;;
59468;SDS011;45277;52.768;18.262;2023-06-19T04:02:39;25.65;;;19.13;;
59468;SDS011;45277;52.768;18.262;2023-06-19T04:04:10;24.65;;;18.23;;
59468;SDS011;45277;52.768;18.262;2023-06-19T04:05:42;33.95;;;19.98;;
59468;SDS011;45277;52.768;18.262;2023-06-19T04:07:14;26.17;;;18.92;;
59468;SDS011;45277;52.768;18.262;2023-06-19T04:08:46;28.25;;;19.08;;
59468;SDS011;45277;52.768;18.262;2023-06-19T04:10:17;26.00;;;18.70;;
59468;SDS011;45277;52.768;18.262;2023-06-19T04:11:49;28.13;;;17.25;;
59468;SDS011;45277;52.768;18.262;2023-06-19T04:13:20;25.73;;;18.58;;
59468;SDS011;45277;52.768;18.262;2023-06-19T04:14:51;31.65;;;18.00;;
59468;SDS011;45277;52.768;18.262;2023-06-19T04:16:23;26.17;;;16.15;;
59468;SDS011;45277;52.768;18.262;2023-06-19T04:17:54;20.15;;;15.10;;
59468;SDS011;45277;52.768;18.262;2023-06-19T04:19:25;22.95;;;14.73;;
59468;SDS011;45277;52.768;18.262;2023-06-19T04:20:57;23.80;;;15.63;;
59468;SDS011;45277;52.768;18.262;2023-06-19T04:22:28;22.02;;;14.88;;
59468;SDS011;45277;52.768;18.262;2023-06-19T04:24:00;22.08;;;14.85;;
59468;SDS011;45277;52.768;18.262;2023-06-19T04:25:31;18.33;;;12.55;;
59468;SDS011;45277;52.768;18.262;2023-06-19T04:27:03;22.88;;;13.75;;
59468;SDS011;45277;52.768;18.262;2023-06-19T04:28:34;17.90;;;13.75;;
59468;SDS011;45277;52.768;18.262;2023-06-19T04:30:06;20.00;;;14.02;;
59468;SDS011;45277;52.768;18.262;2023-06-19T04:31:38;21.23;;;13.27;;
59468;SDS011;45277;52.768;18.262;2023-06-19T04:33:11;16.83;;;12.57;;
59468;SDS011;45277;52.768;18.262;2023-06-19T04:34:43;18.35;;;13.70;;
59468;SDS011;45277;52.768;18.262;2023-06-19T04:36:16;18.40;;;12.55;;
59468;SDS011;45277;52.768;18.262;2023-06-19T04:37:48;23.20;;;12.82;;
59468;SDS011;45277;52.768;18.262;2023-06-19T04:39:19;15.98;;;13.02;;
59468;SDS011;45277;52.768;18.262;2023-06-19T04:40:51;14.95;;;12.05;;
59468;SDS011;45277;52.768;18.262;2023-06-19T04:42:24;15.98;;;11.50;;
59468;SDS011;45277;52.768;18.262;2023-06-19T04:43:55;14.70;;;11.10;;
59468;SDS011;45277;52.768;18.262;2023-06-19T04:45:27;16.20;;;11.40;;
59468;SDS011;45277;52.768;18.262;2023-06-19T04:46:58;14.23;;;11.35;;
59468;SDS011;45277;52.768;18.262;2023-06-19T04:48:32;13.57;;;10.25;;
59468;SDS011;45277;52.768;18.262;2023-06-19T04:50:07;14.98;;;10.63;;
59468;SDS011;45277;52.768;18.262;2023-06-19T04:51:39;13.52;;;10.32;;
59468;SDS011;45277;52.768;18.262;2023-06-19T04:53:12;13.18;;;10.75;;
59468;SDS011;45277;52.768;18.262;2023-06-19T04:54:43;14.02;;;10.77;;
59468;SDS011;45277;52.768;18.262;2023-06-19T04:56:15;14.73;;;11.18;;
59468;SDS011;45277;52.768;18.262;2023-06-19T04:57:46;13.45;;;10.18;;
59468;SDS011;45277;52.768;18.262;2023-06-19T04:59:18;16.83;;;11.27;;
59468;SDS011;45277;52.768;18.262;2023-06-19T05:00:49;16.08;;;11.32;;
59468;SDS011;45277;52.768;18.262;2023-06-19T05:02:22;14.20;;;11.07;;
59468;SDS011;45277;52.768;18.262;2023-06-19T05:03:54;13.70;;;10.38;;
59468;SDS011;45277;52.768;18.262;2023-06-19T05:05:27;15.98;;;11.02;;
59468;SDS011;45277;52.768;18.262;2023-06-19T05:06:59;13.48;;;10.80;;
59468;SDS011;45277;52.768;18.262;2023-06-19T05:08:31;13.95;;;11.02;;
59468;SDS011;45277;52.768;18.262;2023-06-19T05:10:02;14.05;;;10.88;;
59468;SDS011;45277;52.768;18.262;2023-06-19T05:11:34;16.38;;;11.43;;
59468;SDS011;45277;52.768;18.262;2023-06-19T05:13:05;13.55;;;10.75;;
59468;SDS011;45277;52.768;18.262;2023-06-19T05:14:37;12.32;;;9.63;;
59468;SDS011;45277;52.768;18.262;2023-06-19T05:16:10;13.43;;;9.85;;
59468;SDS011;45277;52.768;18.262;2023-06-19T05:17:42;14.38;;;10.48;;
59468;SDS011;45277;52.768;18.262;2023-06-19T05:19:16;12.13;;;9.95;;
59468;SDS011;45277;52.768;18.262;2023-06-19T05:20:48;12.93;;;10.27;;
59468;SDS011;45277;52.768;18.262;2023-06-19T05:22:20;13.32;;;10.13;;
59468;SDS011;45277;52.768;18.262;2023-06-19T05:23:54;12.50;;;9.70;;
59468;SDS011;45277;52.768;18.262;2023-06-19T05:25:26;12.48;;;9.95;;
59468;SDS011;45277;52.768;18.262;2023-06-19T05:26:58;11.35;;;9.80;;
59468;SDS011;45277;52.768;18.262;2023-06-19T05:28:29;11.77;;;9.80;;
59468;SDS011;45277;52.768;18.262;2023-06-19T05:30:01;11.52;;;9.23;;
59468;SDS011;45277;52.768;18.262;2023-06-19T05:31:34;11.43;;;9.85;;
59468;SDS011;45277;52.768;18.262;2023-06-19T05:33:06;13.48;;;11.30;;
59468;SDS011;45277;52.768;18.262;2023-06-19T05:34:38;12.25;;;9.57;;
59468;SDS011;45277;52.768;18.262;2023-06-19T05:36:09;12.57;;;9.68;;
59468;SDS011;45277;52.768;18.262;2023-06-19T05:37:41;11.98;;;9.38;;
59468;SDS011;45277;52.768;18.262;2023-06-19T05:39:14;10.38;;;9.25;;
59468;SDS011;45277;52.768;18.262;2023-06-19T05:40:50;11.43;;;9.50;;
59468;SDS011;45277;52.768;18.262;2023-06-19T05:42:22;10.68;;;8.60;;
59468;SDS011;45277;52.768;18.262;2023-06-19T05:43:54;9.38;;;7.85;;
59468;SDS011;45277;52.768;18.262;2023-06-19T05:45:26;9.40;;;8.32;;
59468;SDS011;45277;52.768;18.262;2023-06-19T05:46:58;10.55;;;7.93;;
59468;SDS011;45277;52.768;18.262;2023-06-19T05:48:30;9.48;;;7.97;;
59468;SDS011;45277;52.768;18.262;2023-06-19T05:50:01;8.90;;;7.35;;
59468;SDS011;45277;52.768;18.262;2023-06-19T05:51:33;8.27;;;6.40;;
59468;SDS011;45277;52.768;18.262;2023-06-19T05:53:06;8.35;;;6.38;;
59468;SDS011;45277;52.768;18.262;2023-06-19T05:54:37;8.10;;;5.97;;
59468;SDS011;45277;52.768;18.262;2023-06-19T05:56:09;10.68;;;6.40;;
59468;SDS011;45277;52.768;18.262;2023-06-19T05:57:41;8.65;;;6.28;;
59468;SDS011;45277;52.768;18.262;2023-06-19T05:59:15;11.15;;;7.18;;
59468;SDS011;45277;52.768;18.262;2023-06-19T06:00:46;11.15;;;7.50;;
59468;SDS011;45277;52.768;18.262;2023-06-19T06:02:19;7.97;;;7.10;;
59468;SDS011;45277;52.768;18.262;2023-06-19T06:03:50;9.07;;;7.13;;
59468;SDS011;45277;52.768;18.262;2023-06-19T06:05:22;11.55;;;6.95;;
59468;SDS011;45277;52.768;18.262;2023-06-19T06:06:56;10.27;;;7.93;;
59468;SDS011;45277;52.768;18.262;2023-06-19T06:08:27;10.23;;;7.82;;
59468;SDS011;45277;52.768;18.262;2023-06-19T06:10:00;12.40;;;10.10;;
59468;SDS011;45277;52.768;18.262;2023-06-19T06:11:32;13.95;;;10.48;;
59468;SDS011;45277;52.768;18.262;2023-06-19T06:13:03;10.23;;;9.13;;
59468;SDS011;45277;52.768;18.262;2023-06-19T06:14:35;9.02;;;6.70;;
59468;SDS011;45277;52.768;18.262;2023-06-19T06:16:06;7.20;;;6.30;;
59468;SDS011;45277;52.768;18.262;2023-06-19T06:17:38;7.63;;;5.85;;
59468;SDS011;45277;52.768;18.262;2023-06-19T06:19:09;7.45;;;6.03;;
59468;SDS011;45277;52.768;18.262;2023-06-19T06:20:41;7.85;;;6.72;;
59468;SDS011;45277;52.768;18.262;2023-06-19T06:22:13;10.02;;;7.55;;
59468;SDS011;45277;52.768;18.262;2023-06-19T06:23:44;7.70;;;6.40;;
59468;SDS011;45277;52.768;18.262;2023-06-19T06:25:16;6.88;;;4.60;;
59468;SDS011;45277;52.768;18.262;2023-06-19T06:26:48;5.25;;;4.68;;
59468;SDS011;45277;52.768;18.262;2023-06-19T06:28:20;6.97;;;4.70;;
59468;SDS011;45277;52.768;18.262;2023-06-19T06:29:52;5.97;;;5.38;;
59468;SDS011;45277;52.768;18.262;2023-06-19T06:31:23;8.77;;;5.95;;
59468;SDS011;45277;52.768;18.262;2023-06-19T06:32:54;6.43;;;5.75;;
59468;SDS011;45277;52.768;18.262;2023-06-19T06:34:27;6.18;;;5.50;;
59468;SDS011;45277;52.768;18.262;2023-06-19T06:35:59;6.47;;;5.40;;
59468;SDS011;45277;52.768;18.262;2023-06-19T06:37:30;7.95;;;6.47;;
59468;SDS011;45277;52.768;18.262;2023-06-19T06:39:02;8.40;;;6.35;;
59468;SDS011;45277;52.768;18.262;2023-06-19T06:40:34;6.47;;;5.57;;
59468;SDS011;45277;52.768;18.262;2023-06-19T06:42:06;7.20;;;5.97;;
59468;SDS011;45277;52.768;18.262;2023-06-19T06:43:40;7.60;;;5.82;;
59468;SDS011;45277;52.768;18.262;2023-06-19T06:45:14;7.38;;;6.57;;
59468;SDS011;45277;52.768;18.262;2023-06-19T06:46:46;9.27;;;6.53;;
59468;SDS011;45277;52.768;18.262;2023-06-19T06:48:19;7.10;;;6.40;;
59468;SDS011;45277;52.768;18.262;2023-06-19T06:49:51;6.75;;;5.47;;
59468;SDS011;45277;52.768;18.262;2023-06-19T06:51:23;8.85;;;5.68;;
59468;SDS011;45277;52.768;18.262;2023-06-19T06:52:55;7.43;;;6.43;;
59468;SDS011;45277;52.768;18.262;2023-06-19T06:54:27;10.73;;;7.28;;
59468;SDS011;45277;52.768;18.262;2023-06-19T06:55:58;7.90;;;6.70;;
59468;SDS011;45277;52.768;18.262;2023-06-19T06:57:31;9.80;;;7.07;;
59468;SDS011;45277;52.768;18.262;2023-06-19T06:59:02;7.72;;;6.47;;
59468;SDS011;45277;52.768;18.262;2023-06-19T07:00:34;8.10;;;6.82;;
59468;SDS011;45277;52.768;18.262;2023-06-19T07:02:06;6.55;;;5.50;;
59468;SDS011;45277;52.768;18.262;2023-06-19T07:03:37;6.43;;;5.03;;
59468;SDS011;45277;52.768;18.262;2023-06-19T07:05:10;6.63;;;5.18;;
59468;SDS011;45277;52.768;18.262;2023-06-19T07:06:42;7.53;;;5.30;;
59468;SDS011;45277;52.768;18.262;2023-06-19T07:08:14;6.55;;;5.78;;
59468;SDS011;45277;52.768;18.262;2023-06-19T07:09:46;8.80;;;5.32;;
59468;SDS011;45277;52.768;18.262;2023-06-19T07:11:19;8.98;;;5.45;;
59468;SDS011;45277;52.768;18.262;2023-06-19T07:12:50;7.10;;;5.72;;
59468;SDS011;45277;52.768;18.262;2023-06-19T07:14:22;7.68;;;5.30;;
59468;SDS011;45277;52.768;18.262;2023-06-19T07:15:54;7.35;;;5.40;;
59468;SDS011;45277;52.768;18.262;2023-06-19T07:17:25;7.63;;;4.97;;
59468;SDS011;45277;52.768;18.262;2023-06-19T07:18:57;5.40;;;4.82;;
59468;SDS011;45277;52.768;18.262;2023-06-19T07:20:29;6.25;;;5.18;;
59468;SDS011;45277;52.768;18.262;2023-06-19T07:22:01;9.02;;;5.10;;
59468;SDS011;45277;52.768;18.262;2023-06-19T07:23:32;7.97;;;6.40;;
59468;SDS011;45277;52.768;18.262;2023-06-19T07:25:05;7.10;;;5.53;;
59468;SDS011;45277;52.768;18.262;2023-06-19T07:26:37;6.75;;;5.45;;
59468;SDS011;45277;52.768;18.262;2023-06-19T07:28:09;8.43;;;5.43;;
59468;SDS011;45277;52.768;18.262;2023-06-19T07:29:43;6.18;;;5.32;;
59468;SDS011;45277;52.768;18.262;2023-06-19T07:31:15;4.93;;;4.05;;
59468;SDS011;45277;52.768;18.262;2023-06-19T07:32:46;5.30;;;4.80;;
59468;SDS011;45277;52.768;18.262;2023-06-19T07:34:18;4.97;;;4.47;;
59468;SDS011;45277;52.768;18.262;2023-06-19T07:35:49;6.82;;;4.60;;
59468;SDS011;45277;52.768;18.262;2023-06-19T07:37:21;4.95;;;4.45;;
59468;SDS011;45277;52.768;18.262;2023-06-19T07:38:54;6.85;;;4.53;;
59468;SDS011;45277;52.768;18.262;2023-06-19T07:40:26;4.70;;;4.20;;
59468;SDS011;45277;52.768;18.262;2023-06-19T07:41:58;5.28;;;4.78;;
59468;SDS011;45277;52.768;18.262;2023-06-19T07:43:30;5.38;;;4.43;;
59468;SDS011;45277;52.768;18.262;2023-06-19T07:45:02;5.85;;;3.85;;
59468;SDS011;45277;52.768;18.262;2023-06-19T07:46:34;5.25;;;4.55;;
59468;SDS011;45277;52.768;18.262;2023-06-19T07:48:05;6.00;;;4.50;;
59468;SDS011;45277;52.768;18.262;2023-06-19T07:49:39;5.70;;;4.72;;
59468;SDS011;45277;52.768;18.262;2023-06-19T07:51:10;6.75;;;4.55;;
59468;SDS011;45277;52.768;18.262;2023-06-19T07:52:42;7.20;;;4.80;;
59468;SDS011;45277;52.768;18.262;2023-06-19T07:54:14;6.93;;;5.13;;
59468;SDS011;45277;52.768;18.262;2023-06-19T07:55:45;6.78;;;5.35;;
59468;SDS011;45277;52.768;18.262;2023-06-19T07:57:17;8.40;;;5.53;;
59468;SDS011;45277;52.768;18.262;2023-06-19T07:58:49;5.50;;;4.50;;
59468;SDS011;45277;52.768;18.262;2023-06-19T08:00:21;6.65;;;3.65;;
59468;SDS011;45277;52.768;18.262;2023-06-19T08:01:53;7.07;;;4.78;;
59468;SDS011;45277;52.768;18.262;2023-06-19T08:03:25;8.40;;;4.70;;
59468;SDS011;45277;52.768;18.262;2023-06-19T08:04:56;6.05;;;5.18;;
59468;SDS011;45277;52.768;18.262;2023-06-19T08:06:29;4.70;;;4.15;;
59468;SDS011;45277;52.768;18.262;2023-06-19T08:08:00;5.38;;;4.75;;
59468;SDS011;45277;52.768;18.262;2023-06-19T08:09:32;5.93;;;5.28;;
59468;SDS011;45277;52.768;18.262;2023-06-19T08:11:04;6.88;;;5.22;;
59468;SDS011;45277;52.768;18.262;2023-06-19T08:12:35;7.10;;;5.43;;
59468;SDS011;45277;52.768;18.262;2023-06-19T08:14:07;7.03;;;5.70;;
59468;SDS011;45277;52.768;18.262;2023-06-19T08:15:38;8.32;;;5.18;;
59468;SDS011;45277;52.768;18.262;2023-06-19T08:17:10;7.63;;;5.28;;
59468;SDS011;45277;52.768;18.262;2023-06-19T08:18:41;5.25;;;4.75;;
59468;SDS011;45277;52.768;18.262;2023-06-19T08:20:13;5.50;;;4.50;;
59468;SDS011;45277;52.768;18.262;2023-06-19T08:21:45;5.97;;;4.55;;
59468;SDS011;45277;52.768;18.262;2023-06-19T08:23:16;5.35;;;4.50;;
59468;SDS011;45277;52.768;18.262;2023-06-19T08:24:48;4.82;;;4.43;;
59468;SDS011;45277;52.768;18.262;2023-06-19T08:26:19;5.55;;;4.90;;
59468;SDS011;45277;52.768;18.262;2023-06-19T08:27:52;11.20;;;5.13;;
59468;SDS011;45277;52.768;18.262;2023-06-19T08:29:24;7.85;;;5.43;;
59468;SDS011;45277;52.768;18.262;2023-06-19T08:30:55;8.07;;;5.60;;
59468;SDS011;45277;52.768;18.262;2023-06-19T08:32:26;7.10;;;4.97;;
59468;SDS011;45277;52.768;18.262;2023-06-19T08:33:58;7.25;;;5.00;;
59468;SDS011;45277;52.768;18.262;2023-06-19T08:35:31;7.15;;;5.07;;
59468;SDS011;45277;52.768;18.262;2023-06-19T08:37:03;6.07;;;4.88;;
59468;SDS011;45277;52.768;18.262;2023-06-19T08:38:36;8.90;;;4.78;;
59468;SDS011;45277;52.768;18.262;2023-06-19T08:40:08;6.60;;;5.35;;
59468;SDS011;45277;52.768;18.262;2023-06-19T08:41:40;7.68;;;4.60;;
59468;SDS011;45277;52.768;18.262;2023-06-19T08:43:14;6.35;;;5.00;;
59468;SDS011;45277;52.768;18.262;2023-06-19T08:44:46;5.03;;;4.32;;
59468;SDS011;45277;52.768;18.262;2023-06-19T08:46:18;5.28;;;4.10;;
59468;SDS011;45277;52.768;18.262;2023-06-19T08:47:50;5.20;;;4.63;;
59468;SDS011;45277;52.768;18.262;2023-06-19T08:49:32;4.95;;;4.40;;
59468;SDS011;45277;52.768;18.262;2023-06-19T08:51:05;10.48;;;4.38;;
59468;SDS011;45277;52.768;18.262;2023-06-19T08:52:38;5.15;;;4.60;;
59468;SDS011;45277;52.768;18.262;2023-06-19T08:54:10;6.80;;;4.43;;
59468;SDS011;45277;52.768;18.262;2023-06-19T08:55:41;5.60;;;4.80;;
59468;SDS011;45277;52.768;18.262;2023-06-19T08:57:14;6.57;;;5.03;;
59468;SDS011;45277;52.768;18.262;2023-06-19T08:58:46;7.07;;;5.90;;